Jessica Lyn — WDC4973 — position and weather

sailwx.info

Track history (hours):
 
Tides and Currents Weather Stations Pressure Air Temp Water Temp Dewpoint Dewpoint Depression Visibility Wind Speed Wind Dir Waves Ship Positions

Jessica Lyn

Owner: Peninsula Bay Enterprises, Crystal beach, TX. More information available from US FCC via Universal Licensing System and Coast Guard Vessel Documentation Center.

Last reported at 2017-Oct-04 23:05 UTC. Time now 2017-Oct-20 17:53 UTC.
Position N 29°33' W 094°55'.
Warning: this ship's position is 15 days out of date.

Type: Fishing. MMSI: 367033730.

Date/timePositionNaut miles runAvg speedWind from/ knotsBaromVisibWave heightAir tempDewpointWater temp
2017-Oct-04 23:05N 29°33' W 094°55'1 7.1
2017-Oct-04 22:59N 29°34' W 094°55'3 7.1
2017-Oct-04 22:30N 29°37' W 094°57'4 7.2
2017-Oct-04 22:00N 29°40' W 094°59'16 5.6
2017-Oct-04 19:14N 29°44' W 095°16'0 0.0
2017-Oct-04 05:41N 29°44' W 095°16'0 0.0
2017-Oct-04 04:25N 29°44' W 095°16'0 0.3
2017-Oct-04 04:00N 29°44' W 095°16'1 2.1
2017-Oct-04 03:28N 29°43' W 095°15'3 5.6
2017-Oct-04 03:00N 29°44' W 095°12'10 5.2
2017-Oct-04 01:07N 29°42' W 095°01'2 6.4
2017-Oct-04 00:53N 29°42' W 094°59'1 3.0
2017-Oct-04 00:30N 29°41' W 094°58'2 4.6
2017-Oct-04 00:00N 29°41' W 094°56'0 0.0
2017-Oct-03 15:08N 29°40' W 094°56'1 7.0
2017-Oct-03 14:59N 29°41' W 094°57'5 4.9
2017-Oct-03 13:55N 29°36' W 094°57'3 7.3
2017-Oct-03 13:30N 29°33' W 094°55'  
Track history (hours):
 
Tides and Currents Weather Stations Pressure Air Temp Water Temp Dewpoint Dewpoint Depression Visibility Wind Speed Wind Dir Waves Ship Positions

Jessica Lyn

Owner: Peninsula Bay Enterprises, Crystal beach, TX. More information available from US FCC via Universal Licensing System and Coast Guard Vessel Documentation Center.

Last reported at 2017-Oct-04 23:05 UTC. Time now 2017-Oct-20 17:54 UTC.
Position N 29°33' W 094°55'.
Warning: this ship's position is 15 days out of date.

Type: Fishing. MMSI: 367033730.

Date/timePositionNaut miles runAvg speedWind from/ knotsBaromVisibWave heightAir tempDewpointWater temp
2017-Oct-04 23:05N 29°33' W 094°55'1 7.1
2017-Oct-04 22:59N 29°34' W 094°55'3 7.1
2017-Oct-04 22:30N 29°37' W 094°57'4 7.2
2017-Oct-04 22:00N 29°40' W 094°59'16 5.6
2017-Oct-04 19:14N 29°44' W 095°16'0 0.0
2017-Oct-04 05:41N 29°44' W 095°16'0 0.0
2017-Oct-04 04:25N 29°44' W 095°16'0 0.3
2017-Oct-04 04:00N 29°44' W 095°16'1 2.1
2017-Oct-04 03:28N 29°43' W 095°15'3 5.6
2017-Oct-04 03:00N 29°44' W 095°12'10 5.2
2017-Oct-04 01:07N 29°42' W 095°01'2 6.4
2017-Oct-04 00:53N 29°42' W 094°59'1 3.0
2017-Oct-04 00:30N 29°41' W 094°58'2 4.6
2017-Oct-04 00:00N 29°41' W 094°56'0 0.0
2017-Oct-03 15:08N 29°40' W 094°56'1 7.0
2017-Oct-03 14:59N 29°41' W 094°57'5 4.9
2017-Oct-03 13:55N 29°36' W 094°57'3 7.3
2017-Oct-03 13:30N 29°33' W 094°55'  

Dump ship's entire track history